Time;durP1;ratioP1;P1;durP2;ratioP2;P2;SDS_P1;SDS_P2;PMS_P1;PMS_P2;Temp;Humidity;BMP_temperature;BMP_pressure;BME280_temperature;BME280_humidity;BME280_pressure;Samples;Min_cycle;Max_cycle;Signal;HPM_P1;HPM_P2
2023/02/14 00:00:05;;;;;;;1999.90;999.90;;;7.00;1.00;;;;;;5037396;28;20295;-68
2023/02/14 00:02:30;;;;;;;1999.90;999.90;;;6.90;99.90;;;;;;5037331;28;20197;-68
2023/02/14 00:04:56;;;;;;;1999.90;999.90;;;6.70;99.90;;;;;;5036971;28;20453;-68
2023/02/14 00:07:21;;;;;;;1999.90;999.90;;;6.50;1.00;;;;;;5036974;28;20257;-68
2023/02/14 00:09:47;;;;;;;1999.90;999.90;;;6.50;30.90;;;;;;5036883;28;20236;-67
2023/02/14 00:12:12;;;;;;;1999.90;999.90;;;6.50;22.00;;;;;;5036648;28;20540;-68
2023/02/14 00:17:22;;;;;;;1999.90;999.90;;;6.40;1.00;;;;;;5036861;28;20172;-68
2023/02/14 00:19:49;;;;;;;1999.90;999.90;;;6.40;1.00;;;;;;5037153;28;20769;-68
2023/02/14 00:22:14;;;;;;;1999.90;999.90;;;6.30;1.00;;;;;;5037013;28;20208;-68
2023/02/14 00:24:40;;;;;;;1999.90;999.90;;;6.20;1.00;;;;;;5036468;28;20427;-67
2023/02/14 00:27:06;;;;;;;1999.90;999.90;;;6.20;1.00;;;;;;5038476;28;20645;-68
2023/02/14 00:29:31;;;;;;;1999.90;999.90;;;6.00;1.00;;;;;;5039255;28;20172;-67
2023/02/14 00:31:57;;;;;;;1999.90;999.90;;;6.00;99.90;;;;;;5038778;28;20646;-68
2023/02/14 00:34:23;;;;;;;1999.90;999.90;;;6.00;99.90;;;;;;5040009;28;20439;-68
2023/02/14 00:36:49;;;;;;;1999.90;999.90;;;5.90;99.90;;;;;;5039249;28;20466;-68
2023/02/14 00:39:16;;;;;;;1999.90;999.90;;;5.80;99.90;;;;;;5039741;28;20177;-68
2023/02/14 00:41:42;;;;;;;1999.90;999.90;;;5.80;99.90;;;;;;5039501;28;20196;-68
2023/02/14 00:44:09;;;;;;;1999.90;999.90;;;5.80;99.90;;;;;;5040046;28;20419;-68
2023/02/14 00:46:35;;;;;;;1999.90;999.90;;;5.80;1.00;;;;;;5039707;28;20402;-68
2023/02/14 00:49:01;;;;;;;1999.90;999.90;;;5.80;99.90;;;;;;5039526;28;20408;-68
2023/02/14 00:51:27;;;;;;;1999.90;999.90;;;5.80;1.00;;;;;;5039745;28;20403;-68
2023/02/14 00:53:54;;;;;;;1999.90;999.90;;;5.80;1.00;;;;;;5039957;28;20419;-68
2023/02/14 00:56:19;;;;;;;1999.90;999.90;;;5.70;1.00;;;;;;5039388;28;20499;-68
2023/02/14 00:58:45;;;;;;;1999.90;999.90;;;5.80;1.00;;;;;;5039589;28;20851;-68
2023/02/14 01:01:12;;;;;;;1999.90;999.90;;;5.80;1.00;;;;;;5038826;28;20196;-68
2023/02/14 01:03:37;;;;;;;1999.90;999.90;;;5.70;1.00;;;;;;5038844;28;20445;-68
2023/02/14 01:06:04;;;;;;;1999.90;999.90;;;5.70;1.00;;;;;;5039075;28;20403;-68
2023/02/14 01:08:30;;;;;;;1999.90;999.90;;;5.70;1.00;;;;;;5039555;28;20198;-68
2023/02/14 01:10:56;;;;;;;1999.90;999.90;;;5.70;1.00;;;;;;5039334;28;20501;-68
2023/02/14 01:13:22;;;;;;;1999.90;999.90;;;5.70;1.00;;;;;;5038679;28;20433;-68
2023/02/14 01:15:50;;;;;;;1999.90;999.90;;;5.70;1.00;;;;;;5039256;28;20601;-68
2023/02/14 01:18:17;;;;;;;1999.90;999.90;;;5.60;1.00;;;;;;5039071;28;20495;-68
2023/02/14 01:20:43;;;;;;;1999.90;999.90;;;5.60;1.00;;;;;;5037805;28;20944;-68
2023/02/14 01:23:09;;;;;;;1999.90;999.90;;;5.60;1.00;;;;;;5037418;28;20478;-67
2023/02/14 01:25:38;;;;;;;1999.90;999.90;;;5.60;1.00;;;;;;5038399;28;20423;-68
2023/02/14 01:28:04;;;;;;;1999.90;999.90;;;5.60;1.00;;;;;;5037687;28;20465;-68
2023/02/14 01:30:30;;;;;;;1999.90;999.90;;;5.60;1.00;;;;;;5037398;28;20415;-68
2023/02/14 01:32:56;;;;;;;1999.90;999.90;;;5.50;1.00;;;;;;5036784;28;20490;-68
2023/02/14 01:35:23;;;;;;;1999.90;999.90;;;5.60;1.00;;;;;;5036932;28;20447;-68
2023/02/14 01:37:49;;;;;;;1999.90;999.90;;;5.60;1.00;;;;;;5036444;28;20175;-68
2023/02/14 01:40:15;;;;;;;1999.90;999.90;;;5.60;1.00;;;;;;5036621;28;20406;-68
2023/02/14 01:42:40;;;;;;;1999.90;999.90;;;5.50;1.00;;;;;;5035910;28;20161;-68
2023/02/14 01:45:15;;;;;;;1999.90;999.90;;;5.50;1.00;;;;;;5036853;28;20419;-68
2023/02/14 01:47:43;;;;;;;1999.90;999.90;;;5.50;1.00;;;;;;5037046;28;20169;-67
2023/02/14 01:50:13;;;;;;;1999.90;999.90;;;5.50;1.00;;;;;;5036911;28;20402;-68
2023/02/14 01:52:45;;;;;;;1999.90;999.90;;;5.40;1.00;;;;;;5036666;28;20501;-68
2023/02/14 01:55:15;;;;;;;1999.90;999.90;;;5.40;1.00;;;;;;5037175;28;20940;-68
2023/02/14 01:57:49;;;;;;;1999.90;999.90;;;5.40;1.00;;;;;;5037252;28;20407;-68
2023/02/14 02:03:02;;;;;;;1999.90;999.90;;;5.20;1.00;;;;;;5037167;28;20915;-68
2023/02/14 02:05:28;;;;;;;1999.90;999.90;;;5.20;1.00;;;;;;5037616;28;20477;-68
2023/02/14 02:07:57;;;;;;;1999.90;999.90;;;5.20;1.00;;;;;;5038530;28;20399;-67
2023/02/14 02:10:23;;;;;;;1999.90;999.90;;;5.20;1.00;;;;;;5038258;28;20165;-68
2023/02/14 02:12:51;;;;;;;1999.90;999.90;;;5.10;1.00;;;;;;5038303;28;20407;-68
2023/02/14 02:15:17;;;;;;;1999.90;999.90;;;5.10;1.00;;;;;;5037934;28;20451;-68
2023/02/14 02:17:59;;;;;;;1999.90;999.90;;;5.10;1.00;;;;;;5038026;28;20418;-68
2023/02/14 02:20:25;;;;;;;1999.90;999.90;;;5.10;1.00;;;;;;5037533;28;20411;-68
2023/02/14 02:23:06;;;;;;;1999.90;999.90;;;5.10;1.00;;;;;;5038702;28;20426;-68
2023/02/14 02:25:56;;;;;;;1999.90;999.90;;;5.10;1.00;;;;;;5038267;28;20191;-68
2023/02/14 02:28:56;;;;;;;1999.90;999.90;;;5.10;1.00;;;;;;5038115;28;20431;-68
2023/02/14 02:31:47;;;;;;;1999.90;999.90;;;5.00;1.00;;;;;;5037701;28;20888;-68
2023/02/14 02:34:33;;;;;;;1999.90;999.90;;;4.90;1.00;;;;;;5037848;28;20441;-68
2023/02/14 02:37:09;;;;;;;1999.90;999.90;;;4.90;1.00;;;;;;5037869;28;20403;-67
2023/02/14 02:39:41;;;;;;;1999.90;999.90;;;4.90;1.00;;;;;;5037719;28;20411;-68
2023/02/14 02:42:37;;;;;;;1999.90;999.90;;;4.90;1.00;;;;;;5037510;28;20991;-68
2023/02/14 02:45:19;;;;;;;1999.90;999.90;;;4.80;1.00;;;;;;5037508;28;20525;-68
2023/02/14 02:47:56;;;;;;;1999.90;999.90;;;4.70;1.00;;;;;;5037375;28;20414;-68
2023/02/14 02:53:37;;;;;;;1999.90;999.90;;;4.40;1.00;;;;;;5037318;28;20437;-68
2023/02/14 02:59:19;;;;;;;1999.90;999.90;;;4.20;1.00;;;;;;5036935;28;20429;-68
2023/02/14 03:01:55;;;;;;;1999.90;999.90;;;4.20;1.00;;;;;;5036090;28;20501;-67
2023/02/14 03:09:54;;;;;;;1999.90;999.90;;;4.20;1.00;;;;;;5037089;28;20394;-68
2023/02/14 03:12:58;;;;;;;1999.90;999.90;;;4.10;1.00;;;;;;5035806;28;20482;-68
2023/02/14 03:15:26;;;;;;;1999.90;999.90;;;4.20;1.00;;;;;;5035513;28;20422;-67
2023/02/14 03:18:42;;;;;;;1999.90;999.90;;;4.20;1.00;;;;;;5034418;28;20407;-68
2023/02/14 03:21:34;;;;;;;1999.90;999.90;;;4.30;1.00;;;;;;4970861;28;20470;-68
2023/02/14 03:24:15;;;;;;;1999.90;999.90;;;4.30;1.00;;;;;;5035106;28;20438;-68
2023/02/14 03:26:53;;;;;;;1999.90;999.90;;;4.30;1.00;;;;;;5034900;28;20398;-68
2023/02/14 03:29:30;;;;;;;1999.90;999.90;;;4.30;1.00;;;;;;5034681;28;21195;-68
2023/02/14 03:32:27;;;;;;;1999.90;999.90;;;4.30;1.00;;;;;;5034417;28;20489;-68
2023/02/14 03:35:17;;;;;;;1999.90;999.90;;;4.30;1.00;;;;;;5035537;28;20468;-67
2023/02/14 03:37:56;;;;;;;1999.90;999.90;;;4.30;1.00;;;;;;5035557;28;20721;-68
2023/02/14 03:40:31;;;;;;;1999.90;999.90;;;4.30;1.00;;;;;;5035132;28;20398;-67
2023/02/14 03:43:05;;;;;;;1999.90;999.90;;;4.30;1.00;;;;;;5035445;28;20430;-68
2023/02/14 03:45:42;;;;;;;1999.90;999.90;;;4.30;1.00;;;;;;5035599;28;20545;-68
2023/02/14 03:48:12;;;;;;;1999.90;999.90;;;4.30;1.00;;;;;;5034813;28;20441;-68
2023/02/14 03:50:41;;;;;;;1999.90;999.90;;;4.30;1.00;;;;;;5035073;28;20753;-68
2023/02/14 03:53:08;;;;;;;1999.90;999.90;;;4.30;1.00;;;;;;5034750;28;20757;-68
2023/02/14 03:55:47;;;;;;;1999.90;999.90;;;4.20;1.00;;;;;;5034319;28;20465;-67
2023/02/14 03:58:27;;;;;;;1999.90;999.90;;;4.20;1.00;;;;;;5033797;28;20411;-67
2023/02/14 04:01:04;;;;;;;1999.90;999.90;;;4.20;1.00;;;;;;5035643;28;20456;-67
2023/02/14 04:03:31;;;;;;;1999.90;999.90;;;4.10;1.00;;;;;;5037200;28;20734;-67
2023/02/14 04:05:57;;;;;;;1999.90;999.90;;;4.10;1.00;;;;;;5043679;28;20468;-68
2023/02/14 04:08:26;;;;;;;1999.90;999.90;;;4.10;1.00;;;;;;5043154;28;20461;-68
2023/02/14 04:10:53;;;;;;;1999.90;999.90;;;4.00;1.00;;;;;;5025395;28;20423;-68
2023/02/14 04:13:19;;;;;;;1999.90;999.90;;;4.10;1.00;;;;;;5043686;28;20431;-69
2023/02/14 04:15:45;;;;;;;1999.90;999.90;;;4.20;1.00;;;;;;5043693;28;20415;-68
2023/02/14 04:20:55;;;;;;;1999.90;999.90;;;4.10;1.00;;;;;;5047524;28;20200;-70
2023/02/14 04:23:20;;;;;;;1999.90;999.90;;;3.90;1.00;;;;;;5045705;28;20411;-70
2023/02/14 04:25:46;;;;;;;1999.90;999.90;;;3.80;1.00;;;;;;5048879;28;20172;-70
2023/02/14 04:28:12;;;;;;;1999.90;999.90;;;3.80;1.00;;;;;;5048661;28;20172;-70
2023/02/14 04:30:37;;;;;;;1999.90;999.90;;;3.70;1.00;;;;;;5046705;28;20221;-70
2023/02/14 04:33:04;;;;;;;1999.90;999.90;;;3.70;1.00;;;;;;5044125;28;20877;-70
2023/02/14 04:35:30;;;;;;;1999.90;999.90;;;3.60;5.20;;;;;;5045343;28;20239;-69
2023/02/14 04:37:55;;;;;;;1999.90;999.90;;;3.60;11.80;;;;;;5045782;28;20180;-70
2023/02/14 04:40:21;;;;;;;1999.90;999.90;;;3.50;13.20;;;;;;5045523;28;20422;-69
2023/02/14 04:42:47;;;;;;;1999.90;999.90;;;3.50;14.20;;;;;;5039517;28;20161;-69
2023/02/14 04:45:13;;;;;;;1999.90;999.90;;;3.40;17.30;;;;;;5035970;28;20196;-70
2023/02/14 04:47:39;;;;;;;1999.90;999.90;;;3.40;19.70;;;;;;5035608;28;20435;-70
2023/02/14 04:50:05;;;;;;;1999.90;999.90;;;3.40;26.10;;;;;;5035923;28;20398;-70
2023/02/14 04:52:30;;;;;;;1999.90;999.90;;;3.40;25.20;;;;;;5036090;28;20176;-70
2023/02/14 04:54:56;;;;;;;1999.90;999.90;;;3.40;26.20;;;;;;5035859;28;20471;-69
2023/02/14 04:57:22;;;;;;;1999.90;999.90;;;3.40;22.20;;;;;;5035268;28;20176;-69
2023/02/14 04:59:47;;;;;;;1999.90;999.90;;;3.40;26.70;;;;;;5035870;28;20173;-69
2023/02/14 05:02:13;;;;;;;1999.90;999.90;;;3.40;25.00;;;;;;5035192;28;20297;-70
2023/02/14 05:04:38;;;;;;;1999.90;999.90;;;3.40;26.50;;;;;;5035225;28;20271;-70
2023/02/14 05:07:04;;;;;;;1999.90;999.90;;;3.40;29.30;;;;;;5035107;28;20250;-70
2023/02/14 05:09:30;;;;;;;1999.90;999.90;;;3.40;35.00;;;;;;5035669;28;20169;-69
2023/02/14 05:11:55;;;;;;;1999.90;999.90;;;3.40;41.00;;;;;;5034410;28;20251;-69
2023/02/14 05:14:21;;;;;;;1999.90;999.90;;;3.50;47.20;;;;;;5035258;28;20231;-70
2023/02/14 05:16:46;;;;;;;1999.90;999.90;;;3.40;44.60;;;;;;5035201;28;20235;-70
2023/02/14 05:19:12;;;;;;;1999.90;999.90;;;3.40;38.60;;;;;;5035043;28;20176;-70
2023/02/14 05:21:38;;;;;;;1999.90;999.90;;;3.40;46.30;;;;;;5034591;28;20786;-69
2023/02/14 05:24:03;;;;;;;1999.90;999.90;;;3.40;50.50;;;;;;5034689;28;20712;-70
2023/02/14 05:26:29;;;;;;;1999.90;999.90;;;3.40;50.20;;;;;;5039717;28;20548;-70
2023/02/14 05:28:55;;;;;;;1999.90;999.90;;;3.40;59.90;;;;;;5054840;28;20625;-69
2023/02/14 05:31:21;;;;;;;1999.90;999.90;;;3.40;59.10;;;;;;5054620;28;20418;-70
2023/02/14 05:33:47;;;;;;;1999.90;999.90;;;3.40;64.80;;;;;;5055075;28;20200;-69
2023/02/14 05:36:14;;;;;;;1999.90;999.90;;;3.50;62.10;;;;;;5055045;28;20513;-70
2023/02/14 05:38:39;;;;;;;1999.90;999.90;;;3.50;57.70;;;;;;5055321;28;20414;-70
2023/02/14 05:41:05;;;;;;;1999.90;999.90;;;3.40;46.40;;;;;;5054981;28;20200;-70
2023/02/14 05:43:30;;;;;;;1999.90;999.90;;;3.30;52.90;;;;;;5054895;28;20194;-69
2023/02/14 05:45:57;;;;;;;1999.90;999.90;;;3.20;56.10;;;;;;5059405;28;20623;-70
2023/02/14 05:48:22;;;;;;;1999.90;999.90;;;3.20;60.40;;;;;;5063165;28;20172;-70
2023/02/14 05:50:48;;;;;;;1999.90;999.90;;;3.10;60.00;;;;;;5063816;28;20457;-70
2023/02/14 05:53:14;;;;;;;1999.90;999.90;;;3.10;72.60;;;;;;5063889;28;20172;-70
2023/02/14 05:55:40;;;;;;;1999.90;999.90;;;3.10;79.80;;;;;;5061688;28;20700;-69
2023/02/14 05:58:06;;;;;;;1999.90;999.90;;;3.00;80.10;;;;;;5061914;28;20205;-70
2023/02/14 06:00:32;;;;;;;1999.90;999.90;;;3.10;93.30;;;;;;5054611;28;20206;-70
2023/02/14 06:02:57;;;;;;;1999.90;999.90;;;3.10;92.80;;;;;;5057810;28;20402;-70
2023/02/14 06:05:23;;;;;;;1999.90;999.90;;;3.10;99.90;;;;;;5058192;28;20211;-70
2023/02/14 06:07:51;;;;;;;1999.90;999.90;;;3.10;99.90;;;;;;5058426;28;20178;-70
2023/02/14 06:10:19;;;;;;;1999.90;999.90;;;3.00;99.90;;;;;;5058217;28;20168;-70
2023/02/14 06:12:47;;;;;;;1999.90;999.90;;;3.10;99.90;;;;;;5061133;28;20410;-70
2023/02/14 06:15:12;;;;;;;1999.90;999.90;;;3.00;99.90;;;;;;5062867;28;20539;-70
2023/02/14 06:17:38;;;;;;;1999.90;999.90;;;3.00;99.90;;;;;;5064271;28;20195;-70
2023/02/14 06:20:05;;;;;;;1999.90;999.90;;;3.10;99.90;;;;;;5063694;28;20164;-69
2023/02/14 06:22:30;;;;;;;1999.90;999.90;;;3.10;99.90;;;;;;5045317;28;20245;-69
2023/02/14 06:24:56;;;;;;;1999.90;999.90;;;3.10;99.90;;;;;;5061498;28;20434;-70
2023/02/14 06:27:21;;;;;;;1999.90;999.90;;;3.20;99.90;;;;;;5063024;28;20640;-70
2023/02/14 06:29:48;;;;;;;1999.90;999.90;;;3.10;99.90;;;;;;5062921;28;20179;-69
2023/02/14 06:32:14;;;;;;;1999.90;999.90;;;3.00;99.90;;;;;;5061395;28;20175;-69
2023/02/14 06:34:39;;;;;;;1999.90;999.90;;;3.00;99.90;;;;;;5058445;28;20549;-70
2023/02/14 06:37:06;;;;;;;1999.90;999.90;;;3.00;99.90;;;;;;5058217;28;20183;-71
2023/02/14 06:39:31;;;;;;;1999.90;999.90;;;3.00;99.90;;;;;;5058794;28;20191;-70
2023/02/14 06:41:57;;;;;;;1999.90;999.90;;;3.00;99.90;;;;;;5057393;28;20461;-70
2023/02/14 06:44:22;;;;;;;1999.90;999.90;;;3.00;99.90;;;;;;5057637;28;20206;-70
2023/02/14 06:46:48;;;;;;;1999.90;999.90;;;3.00;99.90;;;;;;5056266;28;20171;-70
2023/02/14 06:49:13;;;;;;;1999.90;999.90;;;3.00;99.90;;;;;;5054133;28;20176;-70
2023/02/14 06:51:39;;;;;;;1999.90;999.90;;;3.00;99.90;;;;;;5053740;28;20237;-69
2023/02/14 06:54:05;;;;;;;1999.90;999.90;;;3.00;99.90;;;;;;5055874;28;20196;-70
2023/02/14 06:56:30;;;;;;;1999.90;999.90;;;3.00;99.90;;;;;;5058222;28;20182;-70
2023/02/14 06:58:56;;;;;;;1999.90;999.90;;;3.00;99.90;;;;;;5058462;28;20686;-70
2023/02/14 07:01:21;;;;;;;1999.90;999.90;;;2.90;99.90;;;;;;5057819;28;20274;-70
2023/02/14 07:03:47;;;;;;;1999.90;999.90;;;3.00;99.90;;;;;;5058221;28;20206;-70
2023/02/14 07:06:13;;;;;;;1999.90;999.90;;;3.00;99.90;;;;;;5056347;28;20227;-70
2023/02/14 07:08:38;;;;;;;1999.90;999.90;;;3.00;99.90;;;;;;5058809;28;20425;-70
2023/02/14 07:11:04;;;;;;;1999.90;999.90;;;3.10;99.90;;;;;;5058113;28;20645;-70
2023/02/14 07:13:29;;;;;;;1999.90;999.90;;;3.10;99.90;;;;;;5057636;28;20190;-70
2023/02/14 07:15:55;;;;;;;1999.90;999.90;;;3.10;99.90;;;;;;5057904;28;20198;-70
2023/02/14 07:18:21;;;;;;;1999.90;999.90;;;3.20;99.90;;;;;;5058316;28;20167;-69
2023/02/14 07:20:48;;;;;;;1999.90;999.90;;;3.20;99.90;;;;;;5057858;28;20202;-70
2023/02/14 07:23:13;;;;;;;1999.90;999.90;;;3.20;99.90;;;;;;5057376;28;20167;-70
2023/02/14 07:25:39;;;;;;;1999.90;999.90;;;3.20;99.90;;;;;;5057197;28;20418;-71
2023/02/14 07:28:05;;;;;;;1999.90;999.90;;;3.30;99.90;;;;;;5058251;28;20172;-70
2023/02/14 07:30:31;;;;;;;1999.90;999.90;;;3.30;99.90;;;;;;5057639;28;21073;-70
2023/02/14 07:32:57;;;;;;;1999.90;999.90;;;3.30;99.90;;;;;;5057385;28;20656;-70
2023/02/14 07:35:22;;;;;;;1999.90;999.90;;;3.40;99.90;;;;;;5059996;28;20672;-70
2023/02/14 07:37:51;;;;;;;1999.90;999.90;;;3.50;99.90;;;;;;5061519;28;20398;-70
2023/02/14 07:40:18;;;;;;;1999.90;999.90;;;3.50;99.90;;;;;;5061638;28;20643;-70
2023/02/14 07:42:51;;;;;;;1999.90;999.90;;;3.50;99.90;;;;;;5061905;28;20608;-70
2023/02/14 07:45:17;;;;;;;1999.90;999.90;;;3.60;99.90;;;;;;5060608;28;20425;-70
2023/02/14 07:47:42;;;;;;;1999.90;999.90;;;3.60;99.90;;;;;;5060635;28;20417;-70
2023/02/14 07:50:08;;;;;;;1999.90;999.90;;;3.60;99.90;;;;;;5061041;28;20170;-69
2023/02/14 07:52:34;;;;;;;1999.90;999.90;;;3.70;99.90;;;;;;5061082;28;20206;-70
2023/02/14 07:54:59;;;;;;;1999.90;999.90;;;3.70;99.90;;;;;;5060236;28;20436;-70
2023/02/14 07:57:25;;;;;;;1999.90;999.90;;;3.80;99.90;;;;;;5059971;28;20240;-70
2023/02/14 07:59:50;;;;;;;1999.90;999.90;;;3.90;99.90;;;;;;5060757;28;20224;-70
2023/02/14 08:02:16;;;;;;;1999.90;999.90;;;4.00;99.90;;;;;;5059863;28;20200;-70
2023/02/14 08:04:41;;;;;;;1999.90;999.90;;;4.00;99.90;;;;;;5060785;28;20708;-70
2023/02/14 08:07:07;;;;;;;1999.90;999.90;;;4.10;99.90;;;;;;5062749;28;20176;-70
2023/02/14 08:09:33;;;;;;;1999.90;999.90;;;4.20;99.90;;;;;;5061518;28;20588;-69
2023/02/14 08:14:43;;;;;;;1999.90;999.90;;;4.30;99.90;;;;;;5063037;28;20252;-70
2023/02/14 08:17:12;;;;;;;1999.90;999.90;;;4.30;99.90;;;;;;5062423;28;20927;-70
2023/02/14 08:19:38;;;;;;;1999.90;999.90;;;4.40;99.90;;;;;;5063425;28;20414;-70
2023/02/14 08:22:04;;;;;;;1999.90;999.90;;;4.40;99.90;;;;;;5062635;28;20437;-70
2023/02/14 08:24:30;;;;;;;1999.90;999.90;;;4.50;99.90;;;;;;5062610;28;20410;-70
2023/02/14 08:26:56;;;;;;;1999.90;999.90;;;4.60;99.90;;;;;;5062689;28;20449;-70
2023/02/14 08:29:21;;;;;;;1999.90;999.90;;;4.70;99.90;;;;;;5062246;28;20767;-70
2023/02/14 08:31:47;;;;;;;1999.90;999.90;;;4.80;99.90;;;;;;5061804;28;20171;-70
2023/02/14 08:34:14;;;;;;;1999.90;999.90;;;4.90;99.90;;;;;;5062614;28;20676;-70
2023/02/14 08:36:40;;;;;;;1999.90;999.90;;;5.00;99.90;;;;;;5062406;28;20207;-70
2023/02/14 08:39:07;;;;;;;1999.90;999.90;;;5.10;99.90;;;;;;5062105;28;20417;-70
2023/02/14 08:41:33;;;;;;;1999.90;999.90;;;5.10;99.90;;;;;;5061805;28;20462;-70
2023/02/14 08:43:59;;;;;;;1999.90;999.90;;;5.30;99.90;;;;;;5062441;28;20861;-70
2023/02/14 08:46:24;;;;;;;1999.90;999.90;;;5.30;99.90;;;;;;5061180;28;20406;-70
2023/02/14 08:48:52;;;;;;;1999.90;999.90;;;5.50;99.90;;;;;;5061884;28;20417;-70
2023/02/14 08:51:17;;;;;;;1999.90;999.90;;;5.60;99.90;;;;;;5062516;28;20184;-70
2023/02/14 08:53:43;;;;;;;1999.90;999.90;;;5.60;99.90;;;;;;5062898;28;20436;-70
2023/02/14 08:56:11;;;;;;;1999.90;999.90;;;5.70;99.90;;;;;;5044853;28;20175;-70
2023/02/14 08:58:37;;;;;;;1999.90;999.90;;;5.80;99.90;;;;;;5062638;28;20206;-70
2023/02/14 09:01:14;;;;;;;1999.90;999.90;;;5.90;82.60;;;;;;5061661;28;20446;-70
2023/02/14 09:03:40;;;;;;;1999.90;999.90;;;5.90;26.40;;;;;;5044443;28;20807;-70
2023/02/14 09:06:12;;;;;;;1999.90;999.90;;;5.90;18.70;;;;;;5062546;28;20413;-70
2023/02/14 09:08:39;;;;;;;1999.90;999.90;;;5.80;15.30;;;;;;5061962;28;20168;-70
2023/02/14 09:11:15;;;;;;;1999.90;999.90;;;5.80;15.40;;;;;;5057768;28;20475;-70
2023/02/14 09:13:42;;;;;;;1999.90;999.90;;;5.90;10.60;;;;;;5041972;28;20448;-71
2023/02/14 09:16:09;;;;;;;1999.90;999.90;;;5.90;4.50;;;;;;5040622;28;20419;-68
2023/02/14 09:18:35;;;;;;;1999.90;999.90;;;5.90;1.00;;;;;;5044364;28;20759;-69
2023/02/14 09:21:01;;;;;;;1999.90;999.90;;;6.00;1.00;;;;;;5044628;28;20545;-70
2023/02/14 09:23:27;;;;;;;1999.90;999.90;;;6.10;1.00;;;;;;5027488;28;20411;-69
2023/02/14 09:26:01;;;;;;;1999.90;999.90;;;6.20;1.00;;;;;;5044603;28;20420;-69
2023/02/14 09:28:26;;;;;;;1999.90;999.90;;;6.40;1.00;;;;;;5041507;28;20255;-69
2023/02/14 09:30:52;;;;;;;1999.90;999.90;;;6.50;1.00;;;;;;5042790;28;20435;-70
2023/02/14 09:33:18;;;;;;;1999.90;999.90;;;6.60;1.00;;;;;;5041631;28;20172;-70
2023/02/14 09:35:49;;;;;;;1999.90;999.90;;;6.70;1.00;;;;;;5039325;28;20225;-69
2023/02/14 09:38:18;;;;;;;1999.90;999.90;;;6.80;1.00;;;;;;5042579;28;20799;-69
2023/02/14 09:40:45;;;;;;;1999.90;999.90;;;6.90;1.00;;;;;;5041829;28;20416;-69
2023/02/14 09:43:35;;;;;;;1999.90;999.90;;;7.10;1.00;;;;;;5040574;28;20407;-69
2023/02/14 09:46:03;;;;;;;1999.90;999.90;;;7.20;1.00;;;;;;5041596;28;20411;-69
2023/02/14 09:48:35;;;;;;;1999.90;999.90;;;7.30;1.00;;;;;;5041054;28;20407;-72
2023/02/14 09:51:24;;;;;;;1999.90;999.90;;;7.40;1.00;;;;;;5039294;28;20478;-71
2023/02/14 09:54:12;;;;;;;1999.90;999.90;;;7.60;99.90;;;;;;5038386;28;20848;-71
2023/02/14 09:56:47;;;;;;;1999.90;999.90;;;7.70;1.00;;;;;;5021563;28;20446;-71
2023/02/14 09:59:18;;;;;;;1999.90;999.90;;;7.90;99.90;;;;;;5041101;28;21078;-68
2023/02/14 10:02:18;;;;;;;1999.90;999.90;;;7.90;99.90;;;;;;5043066;28;20509;-69
2023/02/14 10:05:05;;;;;;;1999.90;999.90;;;8.00;99.90;;;;;;5027660;28;20458;-72
2023/02/14 10:08:04;;;;;;;1999.90;999.90;;;8.10;99.90;;;;;;5041608;28;20400;-71
2023/02/14 10:10:35;;;;;;;1999.90;999.90;;;8.30;99.90;;;;;;5042075;28;20396;-69
2023/02/14 10:13:19;;;;;;;1999.90;999.90;;;8.40;99.90;;;;;;5039205;28;20410;-69
2023/02/14 10:15:49;;;;;;;1999.90;999.90;;;8.50;99.90;;;;;;5039633;28;20409;-71
2023/02/14 10:18:23;;;;;;;1999.90;999.90;;;8.70;99.90;;;;;;5039458;28;20456;-71
2023/02/14 10:20:54;;;;;;;1999.90;999.90;;;8.80;1.00;;;;;;5039820;28;20453;-72
2023/02/14 10:23:34;;;;;;;1999.90;999.90;;;8.90;99.90;;;;;;5036345;28;20407;-72
2023/02/14 10:26:06;;;;;;;1999.90;999.90;;;9.00;1.00;;;;;;5032845;28;20422;-72
2023/02/14 10:28:46;;;;;;;1999.90;999.90;;;9.10;1.00;;;;;;5032624;28;20459;-71
2023/02/14 10:31:40;;;;;;;1999.90;999.90;;;9.20;1.00;;;;;;5031647;28;20409;-72
2023/02/14 10:34:18;;;;;;;1999.90;999.90;;;9.20;99.90;;;;;;4998245;28;20452;-72
2023/02/14 10:36:59;;;;;;;1999.90;999.90;;;9.30;1.00;;;;;;5032209;28;20418;-72
2023/02/14 10:39:24;;;;;;;1999.90;999.90;;;9.50;99.90;;;;;;5031891;28;20515;-69
2023/02/14 10:42:15;;;;;;;1999.90;999.90;;;9.60;1.00;;;;;;5032449;28;20805;-69
2023/02/14 10:44:49;;;;;;;1999.90;999.90;;;9.80;99.90;;;;;;5032185;28;20187;-68
2023/02/14 10:47:53;;;;;;;1999.90;999.90;;;9.90;99.90;;;;;;5033657;28;20412;-73
2023/02/14 10:50:33;;;;;;;1999.90;999.90;;;10.10;99.90;;;;;;5035807;28;20421;-68
2023/02/14 10:53:14;;;;;;;1999.90;999.90;;;10.10;99.90;;;;;;5036290;28;20426;-68
2023/02/14 10:56:01;;;;;;;1999.90;999.90;;;10.30;99.90;;;;;;5036941;28;20868;-68
2023/02/14 10:58:30;;;;;;;1999.90;999.90;;;10.40;99.90;;;;;;5037078;28;20493;-68
2023/02/14 11:01:11;;;;;;;1999.90;999.90;;;10.60;99.90;;;;;;5037168;28;20881;-68
2023/02/14 11:03:40;;;;;;;1999.90;999.90;;;10.70;99.90;;;;;;5037776;28;20803;-68
2023/02/14 11:06:09;;;;;;;1999.90;999.90;;;10.70;99.90;;;;;;5037586;28;20441;-67
2023/02/14 11:08:39;;;;;;;1999.90;999.90;;;10.80;99.90;;;;;;5034370;28;20493;-66
2023/02/14 11:11:30;;;;;;;1999.90;999.90;;;11.00;99.90;;;;;;5039306;28;20418;-66
2023/02/14 11:13:56;;;;;;;1999.90;999.90;;;11.10;99.90;;;;;;5041064;28;20452;-67
2023/02/14 11:16:34;;;;;;;1999.90;999.90;;;11.30;99.90;;;;;;5023071;28;20542;-68
2023/02/14 11:19:21;;;;;;;1999.90;999.90;;;11.40;99.90;;;;;;5040437;28;20182;-67
2023/02/14 11:21:51;;;;;;;1999.90;999.90;;;11.50;99.90;;;;;;5039514;28;20490;-71
2023/02/14 11:24:26;;;;;;;1999.90;999.90;;;11.60;99.90;;;;;;5038914;28;20455;-67
2023/02/14 11:26:54;;;;;;;1999.90;999.90;;;11.60;99.90;;;;;;5039088;28;20931;-67
2023/02/14 11:29:38;;;;;;;1999.90;999.90;;;11.70;99.90;;;;;;5038548;28;20864;-67
2023/02/14 11:32:15;;;;;;;1999.90;999.90;;;11.90;99.90;;;;;;5038918;28;20403;-68
2023/02/14 11:34:45;;;;;;;1999.90;999.90;;;11.80;99.90;;;;;;5038121;28;20440;-68
2023/02/14 11:37:23;;;;;;;1999.90;999.90;;;12.00;99.90;;;;;;5037841;28;20412;-68
2023/02/14 11:39:51;;;;;;;1999.90;999.90;;;12.00;99.90;;;;;;5038551;28;20453;-68
2023/02/14 11:42:37;;;;;;;1999.90;999.90;;;12.10;99.90;;;;;;5042772;28;20532;-68
2023/02/14 11:45:04;;;;;;;1999.90;999.90;;;12.40;99.90;;;;;;5041070;28;20431;-70
2023/02/14 11:47:33;;;;;;;1999.90;999.90;;;12.90;99.90;;;;;;5042451;28;20530;-70
2023/02/14 11:50:05;;;;;;;1999.90;999.90;;;13.50;99.90;;;;;;5041875;28;20406;-70
2023/02/14 11:52:35;;;;;;;1999.90;999.90;;;14.20;99.90;;;;;;5038558;28;20418;-69
2023/02/14 11:55:01;;;;;;;1999.90;999.90;;;15.10;99.90;;;;;;5039767;28;20804;-69
2023/02/14 11:57:34;;;;;;;1999.90;999.90;;;15.80;99.90;;;;;;5039732;28;20416;-70
2023/02/14 12:00:03;;;;;;;1999.90;999.90;;;16.50;99.90;;;;;;5039015;28;20218;-70
2023/02/14 12:02:39;;;;;;;1999.90;999.90;;;17.00;99.90;;;;;;5039824;28;20490;-70
2023/02/14 12:05:22;;;;;;;1999.90;999.90;;;17.50;99.90;;;;;;5038875;28;20521;-69
2023/02/14 12:07:51;;;;;;;1999.90;999.90;;;18.00;99.90;;;;;;5038281;28;20889;-70
2023/02/14 12:10:26;;;;;;;1999.90;999.90;;;18.70;97.60;;;;;;5038358;28;20443;-69
2023/02/14 12:12:58;;;;;;;1999.90;999.90;;;19.00;91.80;;;;;;5039009;28;20412;-70
2023/02/14 12:15:51;;;;;;;1999.90;999.90;;;19.20;81.60;;;;;;5038404;28;20430;-71
2023/02/14 12:18:32;;;;;;;1999.90;999.90;;;19.40;79.10;;;;;;5038550;28;20816;-70
2023/02/14 12:21:00;;;;;;;1999.90;999.90;;;19.50;71.90;;;;;;5037707;28;20457;-70
2023/02/14 12:23:39;;;;;;;1999.90;999.90;;;19.80;63.80;;;;;;5034558;28;20405;-70
2023/02/14 12:26:16;;;;;;;1999.90;999.90;;;20.60;61.30;;;;;;5035016;28;20434;-70
2023/02/14 12:28:52;;;;;;;1999.90;999.90;;;21.40;54.10;;;;;;5035010;28;20780;-70
2023/02/14 12:31:18;;;;;;;1999.90;999.90;;;22.10;50.40;;;;;;5034862;28;20414;-70
2023/02/14 12:33:43;;;;;;;1999.90;999.90;;;22.40;38.70;;;;;;5034828;28;20446;-70
2023/02/14 12:36:36;;;;;;;1999.90;999.90;;;22.40;34.30;;;;;;5034254;28;20406;-70
2023/02/14 12:39:14;;;;;;;1999.90;999.90;;;22.40;31.80;;;;;;5035016;28;20176;-70
2023/02/14 12:41:58;;;;;;;1999.90;999.90;;;22.80;32.30;;;;;;5034373;28;20454;-71
2023/02/14 12:44:57;;;;;;;1999.90;999.90;;;23.00;29.00;;;;;;5034441;28;20417;-71
2023/02/14 12:47:54;;;;;;;1999.90;999.90;;;23.30;27.90;;;;;;5034996;28;20373;-71
2023/02/14 12:50:50;;;;;;;1999.90;999.90;;;23.20;24.30;;;;;;5034380;28;21014;-69